sensor_id;sensor_type;location;lat;lon;timestamp;temperature;humidity
75961;SHT30;64644;48.914;2.254;2023-05-14T00:00:10;16.48;65.63
75961;SHT30;64644;48.914;2.254;2023-05-14T00:02:36;16.44;65.72
75961;SHT30;64644;48.914;2.254;2023-05-14T00:05:02;16.41;65.76
75961;SHT30;64644;48.914;2.254;2023-05-14T00:07:27;16.37;65.75
75961;SHT30;64644;48.914;2.254;2023-05-14T00:09:55;16.34;65.66
75961;SHT30;64644;48.914;2.254;2023-05-14T00:12:21;16.25;65.77
75961;SHT30;64644;48.914;2.254;2023-05-14T00:14:46;16.22;65.76
75961;SHT30;64644;48.914;2.254;2023-05-14T00:17:11;16.18;65.88
75961;SHT30;64644;48.914;2.254;2023-05-14T00:19:37;16.13;65.99
75961;SHT30;64644;48.914;2.254;2023-05-14T00:22:06;16.13;65.88
75961;SHT30;64644;48.914;2.254;2023-05-14T00:24:31;16.06;65.95
75961;SHT30;64644;48.914;2.254;2023-05-14T00:26:57;16.03;66.02
75961;SHT30;64644;48.914;2.254;2023-05-14T00:29:22;15.97;65.99
75961;SHT30;64644;48.914;2.254;2023-05-14T00:31:47;15.94;66.11
75961;SHT30;64644;48.914;2.254;2023-05-14T00:34:13;15.87;66.18
75961;SHT30;64644;48.914;2.254;2023-05-14T00:36:38;15.83;66.26
75961;SHT30;64644;48.914;2.254;2023-05-14T00:39:03;15.85;66.29
75961;SHT30;64644;48.914;2.254;2023-05-14T00:41:29;15.81;66.30
75961;SHT30;64644;48.914;2.254;2023-05-14T00:43:54;15.76;66.41
75961;SHT30;64644;48.914;2.254;2023-05-14T00:46:20;15.72;66.44
75961;SHT30;64644;48.914;2.254;2023-05-14T00:48:45;15.68;66.56
75961;SHT30;64644;48.914;2.254;2023-05-14T00:51:11;15.61;66.43
75961;SHT30;64644;48.914;2.254;2023-05-14T00:53:36;15.59;66.51
75961;SHT30;64644;48.914;2.254;2023-05-14T00:56:02;15.54;66.66
75961;SHT30;64644;48.914;2.254;2023-05-14T00:58:27;15.48;66.78
75961;SHT30;64644;48.914;2.254;2023-05-14T01:00:53;15.45;66.61
75961;SHT30;64644;48.914;2.254;2023-05-14T01:03:18;15.42;66.80
75961;SHT30;64644;48.914;2.254;2023-05-14T01:08:43;15.35;66.76
75961;SHT30;64644;48.914;2.254;2023-05-14T01:11:32;15.32;66.99
75961;SHT30;64644;48.914;2.254;2023-05-14T01:17:01;15.24;67.02
75961;SHT30;64644;48.914;2.254;2023-05-14T01:19:34;15.23;67.05
75961;SHT30;64644;48.914;2.254;2023-05-14T01:22:01;15.21;67.21
75961;SHT30;64644;48.914;2.254;2023-05-14T01:24:26;15.17;67.24
75961;SHT30;64644;48.914;2.254;2023-05-14T01:26:58;15.19;67.32
75961;SHT30;64644;48.914;2.254;2023-05-14T01:29:27;15.17;67.44
75961;SHT30;64644;48.914;2.254;2023-05-14T01:31:54;15.14;67.28
75961;SHT30;64644;48.914;2.254;2023-05-14T01:34:23;15.14;67.38
75961;SHT30;64644;48.914;2.254;2023-05-14T01:36:50;15.13;67.41
75961;SHT30;64644;48.914;2.254;2023-05-14T01:39:18;15.13;67.39
75961;SHT30;64644;48.914;2.254;2023-05-14T01:41:45;15.11;67.62
75961;SHT30;64644;48.914;2.254;2023-05-14T01:44:11;15.08;67.40
75961;SHT30;64644;48.914;2.254;2023-05-14T01:46:36;15.07;67.65
75961;SHT30;64644;48.914;2.254;2023-05-14T01:49:02;15.07;67.66
75961;SHT30;64644;48.914;2.254;2023-05-14T01:51:27;15.07;67.53
75961;SHT30;64644;48.914;2.254;2023-05-14T01:53:53;15.03;67.74
75961;SHT30;64644;48.914;2.254;2023-05-14T01:56:21;15.02;67.77
75961;SHT30;64644;48.914;2.254;2023-05-14T01:58:47;15.02;67.82
75961;SHT30;64644;48.914;2.254;2023-05-14T02:01:13;15.00;67.79
75961;SHT30;64644;48.914;2.254;2023-05-14T02:03:38;15.02;67.81
75961;SHT30;64644;48.914;2.254;2023-05-14T02:06:05;15.00;67.83
75961;SHT30;64644;48.914;2.254;2023-05-14T02:08:30;14.97;67.58
75961;SHT30;64644;48.914;2.254;2023-05-14T02:10:56;14.96;67.82
75961;SHT30;64644;48.914;2.254;2023-05-14T02:13:21;14.93;67.90
75961;SHT30;64644;48.914;2.254;2023-05-14T02:15:46;14.90;67.74
75961;SHT30;64644;48.914;2.254;2023-05-14T02:18:12;14.89;67.93
75961;SHT30;64644;48.914;2.254;2023-05-14T02:20:37;14.92;68.08
75961;SHT30;64644;48.914;2.254;2023-05-14T02:23:02;14.87;68.04
75961;SHT30;64644;48.914;2.254;2023-05-14T02:25:28;14.86;68.11
75961;SHT30;64644;48.914;2.254;2023-05-14T02:27:53;14.85;67.99
75961;SHT30;64644;48.914;2.254;2023-05-14T02:30:20;14.87;68.12
75961;SHT30;64644;48.914;2.254;2023-05-14T02:32:46;14.86;67.98
75961;SHT30;64644;48.914;2.254;2023-05-14T02:35:11;14.83;68.15
75961;SHT30;64644;48.914;2.254;2023-05-14T02:37:36;14.85;68.02
75961;SHT30;64644;48.914;2.254;2023-05-14T02:40:02;14.83;67.74
75961;SHT30;64644;48.914;2.254;2023-05-14T02:42:28;14.78;67.80
75961;SHT30;64644;48.914;2.254;2023-05-14T02:44:54;14.73;67.81
75961;SHT30;64644;48.914;2.254;2023-05-14T02:47:19;14.69;67.66
75961;SHT30;64644;48.914;2.254;2023-05-14T02:49:44;14.65;67.87
75961;SHT30;64644;48.914;2.254;2023-05-14T02:52:09;14.61;67.94
75961;SHT30;64644;48.914;2.254;2023-05-14T02:54:35;14.61;68.10
75961;SHT30;64644;48.914;2.254;2023-05-14T02:57:00;14.57;68.02
75961;SHT30;64644;48.914;2.254;2023-05-14T02:59:27;14.52;68.07
75961;SHT30;64644;48.914;2.254;2023-05-14T03:01:52;14.52;68.20
75961;SHT30;64644;48.914;2.254;2023-05-14T03:04:17;14.51;68.03
75961;SHT30;64644;48.914;2.254;2023-05-14T03:06:43;14.49;68.33
75961;SHT30;64644;48.914;2.254;2023-05-14T03:09:08;14.46;68.35
75961;SHT30;64644;48.914;2.254;2023-05-14T03:11:34;14.44;68.31
75961;SHT30;64644;48.914;2.254;2023-05-14T03:13:59;14.44;68.59
75961;SHT30;64644;48.914;2.254;2023-05-14T03:16:25;14.42;68.57
75961;SHT30;64644;48.914;2.254;2023-05-14T03:18:50;14.40;68.60
75961;SHT30;64644;48.914;2.254;2023-05-14T03:21:16;14.40;68.60
75961;SHT30;64644;48.914;2.254;2023-05-14T03:23:41;14.37;68.43
75961;SHT30;64644;48.914;2.254;2023-05-14T03:26:06;14.35;68.66
75961;SHT30;64644;48.914;2.254;2023-05-14T03:28:32;14.38;68.54
75961;SHT30;64644;48.914;2.254;2023-05-14T03:30:57;14.31;68.48
75961;SHT30;64644;48.914;2.254;2023-05-14T03:33:23;14.28;68.56
75961;SHT30;64644;48.914;2.254;2023-05-14T03:35:48;14.26;68.31
75961;SHT30;64644;48.914;2.254;2023-05-14T03:38:14;14.18;68.34
75961;SHT30;64644;48.914;2.254;2023-05-14T03:40:39;14.14;68.65
75961;SHT30;64644;48.914;2.254;2023-05-14T03:43:04;14.06;68.79
75961;SHT30;64644;48.914;2.254;2023-05-14T03:45:30;14.05;69.04
75961;SHT30;64644;48.914;2.254;2023-05-14T03:47:56;14.09;69.27
75961;SHT30;64644;48.914;2.254;2023-05-14T03:50:21;14.06;69.40
75961;SHT30;64644;48.914;2.254;2023-05-14T03:52:49;14.07;69.23
75961;SHT30;64644;48.914;2.254;2023-05-14T03:55:17;14.06;68.89
75961;SHT30;64644;48.914;2.254;2023-05-14T03:57:42;14.05;69.32
75961;SHT30;64644;48.914;2.254;2023-05-14T04:00:08;14.00;69.24
75961;SHT30;64644;48.914;2.254;2023-05-14T04:02:34;14.00;69.52
75961;SHT30;64644;48.914;2.254;2023-05-14T04:04:59;13.98;69.33
75961;SHT30;64644;48.914;2.254;2023-05-14T04:07:24;13.93;69.38
75961;SHT30;64644;48.914;2.254;2023-05-14T04:09:50;13.90;69.65
75961;SHT30;64644;48.914;2.254;2023-05-14T04:12:16;13.93;69.95
75961;SHT30;64644;48.914;2.254;2023-05-14T04:14:41;13.98;69.59
75961;SHT30;64644;48.914;2.254;2023-05-14T04:17:06;13.93;69.91
75961;SHT30;64644;48.914;2.254;2023-05-14T04:19:32;14.00;70.10
75961;SHT30;64644;48.914;2.254;2023-05-14T04:21:57;13.99;69.99
75961;SHT30;64644;48.914;2.254;2023-05-14T04:24:22;14.00;70.02
75961;SHT30;64644;48.914;2.254;2023-05-14T04:26:47;14.06;70.10
75961;SHT30;64644;48.914;2.254;2023-05-14T04:29:13;14.02;69.93
75961;SHT30;64644;48.914;2.254;2023-05-14T04:31:38;14.05;69.97
75961;SHT30;64644;48.914;2.254;2023-05-14T04:34:03;14.03;70.06
75961;SHT30;64644;48.914;2.254;2023-05-14T04:36:29;14.05;70.34
75961;SHT30;64644;48.914;2.254;2023-05-14T04:38:55;14.07;70.24
75961;SHT30;64644;48.914;2.254;2023-05-14T04:41:20;14.07;70.44
75961;SHT30;64644;48.914;2.254;2023-05-14T04:43:48;14.13;70.24
75961;SHT30;64644;48.914;2.254;2023-05-14T04:46:13;14.12;70.26
75961;SHT30;64644;48.914;2.254;2023-05-14T04:48:39;14.13;70.31
75961;SHT30;64644;48.914;2.254;2023-05-14T04:51:05;14.14;70.21
75961;SHT30;64644;48.914;2.254;2023-05-14T04:53:30;14.12;70.32
75961;SHT30;64644;48.914;2.254;2023-05-14T04:55:55;14.13;70.34
75961;SHT30;64644;48.914;2.254;2023-05-14T04:58:21;14.16;70.28
75961;SHT30;64644;48.914;2.254;2023-05-14T05:00:47;14.16;70.38
75961;SHT30;64644;48.914;2.254;2023-05-14T05:03:13;14.18;70.37
75961;SHT30;64644;48.914;2.254;2023-05-14T05:05:38;14.18;70.33
75961;SHT30;64644;48.914;2.254;2023-05-14T05:08:03;14.20;70.27
75961;SHT30;64644;48.914;2.254;2023-05-14T05:10:28;14.20;70.37
75961;SHT30;64644;48.914;2.254;2023-05-14T05:12:54;14.23;70.38
75961;SHT30;64644;48.914;2.254;2023-05-14T05:15:19;14.24;70.47
75961;SHT30;64644;48.914;2.254;2023-05-14T05:17:44;14.23;70.51
75961;SHT30;64644;48.914;2.254;2023-05-14T05:20:10;14.24;70.38
75961;SHT30;64644;48.914;2.254;2023-05-14T05:22:36;14.27;69.91
75961;SHT30;64644;48.914;2.254;2023-05-14T05:25:01;14.23;70.19
75961;SHT30;64644;48.914;2.254;2023-05-14T05:27:30;14.20;70.08
75961;SHT30;64644;48.914;2.254;2023-05-14T05:29:56;14.21;70.31
75961;SHT30;64644;48.914;2.254;2023-05-14T05:32:21;14.18;70.48
75961;SHT30;64644;48.914;2.254;2023-05-14T05:34:47;14.20;70.46
75961;SHT30;64644;48.914;2.254;2023-05-14T05:37:12;14.23;70.45
75961;SHT30;64644;48.914;2.254;2023-05-14T05:39:39;14.23;70.57
75961;SHT30;64644;48.914;2.254;2023-05-14T05:42:04;14.21;70.42
75961;SHT30;64644;48.914;2.254;2023-05-14T05:44:30;14.23;70.49
75961;SHT30;64644;48.914;2.254;2023-05-14T05:46:55;14.24;70.53
75961;SHT30;64644;48.914;2.254;2023-05-14T05:49:22;14.24;70.49
75961;SHT30;64644;48.914;2.254;2023-05-14T05:51:47;14.23;70.52
75961;SHT30;64644;48.914;2.254;2023-05-14T05:54:12;14.24;70.44
75961;SHT30;64644;48.914;2.254;2023-05-14T05:56:38;14.23;70.50
75961;SHT30;64644;48.914;2.254;2023-05-14T05:59:03;14.21;70.50
75961;SHT30;64644;48.914;2.254;2023-05-14T06:01:28;14.21;70.48
75961;SHT30;64644;48.914;2.254;2023-05-14T06:03:54;14.21;70.49
75961;SHT30;64644;48.914;2.254;2023-05-14T06:06:19;14.20;70.53
75961;SHT30;64644;48.914;2.254;2023-05-14T06:08:45;14.18;70.47
75961;SHT30;64644;48.914;2.254;2023-05-14T06:11:11;14.17;70.53
75961;SHT30;64644;48.914;2.254;2023-05-14T06:13:36;14.16;70.59
75961;SHT30;64644;48.914;2.254;2023-05-14T06:16:02;14.16;70.59
75961;SHT30;64644;48.914;2.254;2023-05-14T06:18:27;14.16;70.75
75961;SHT30;64644;48.914;2.254;2023-05-14T06:20:52;14.14;70.70
75961;SHT30;64644;48.914;2.254;2023-05-14T06:23:20;14.18;70.58
75961;SHT30;64644;48.914;2.254;2023-05-14T06:25:46;14.20;70.57
75961;SHT30;64644;48.914;2.254;2023-05-14T06:28:11;14.21;70.64
75961;SHT30;64644;48.914;2.254;2023-05-14T06:30:36;14.23;70.52
75961;SHT30;64644;48.914;2.254;2023-05-14T06:33:01;14.21;70.32
75961;SHT30;64644;48.914;2.254;2023-05-14T06:35:27;14.20;70.50
75961;SHT30;64644;48.914;2.254;2023-05-14T06:37:52;14.23;70.57
75961;SHT30;64644;48.914;2.254;2023-05-14T06:40:18;14.24;70.55
75961;SHT30;64644;48.914;2.254;2023-05-14T06:42:43;14.27;70.51
75961;SHT30;64644;48.914;2.254;2023-05-14T06:45:08;14.27;70.41
75961;SHT30;64644;48.914;2.254;2023-05-14T06:47:34;14.26;70.35
75961;SHT30;64644;48.914;2.254;2023-05-14T06:49:59;14.26;70.41
75961;SHT30;64644;48.914;2.254;2023-05-14T06:52:26;14.24;70.44
75961;SHT30;64644;48.914;2.254;2023-05-14T06:54:51;14.27;70.44
75961;SHT30;64644;48.914;2.254;2023-05-14T06:57:16;14.26;70.34
75961;SHT30;64644;48.914;2.254;2023-05-14T06:59:41;14.26;70.31
75961;SHT30;64644;48.914;2.254;2023-05-14T07:02:07;14.24;70.32
75961;SHT30;64644;48.914;2.254;2023-05-14T07:04:32;14.21;70.24
75961;SHT30;64644;48.914;2.254;2023-05-14T07:06:58;14.21;70.41
75961;SHT30;64644;48.914;2.254;2023-05-14T07:09:23;14.20;70.41
75961;SHT30;64644;48.914;2.254;2023-05-14T07:11:48;14.17;70.53
75961;SHT30;64644;48.914;2.254;2023-05-14T07:14:14;14.18;70.44
75961;SHT30;64644;48.914;2.254;2023-05-14T07:16:40;14.17;70.53
75961;SHT30;64644;48.914;2.254;2023-05-14T07:19:06;14.14;70.54
75961;SHT30;64644;48.914;2.254;2023-05-14T07:21:31;14.14;70.51
75961;SHT30;64644;48.914;2.254;2023-05-14T07:23:56;14.18;70.56
75961;SHT30;64644;48.914;2.254;2023-05-14T07:26:22;14.18;70.55
75961;SHT30;64644;48.914;2.254;2023-05-14T07:28:48;14.18;70.67
75961;SHT30;64644;48.914;2.254;2023-05-14T07:31:14;14.20;70.57
75961;SHT30;64644;48.914;2.254;2023-05-14T07:33:39;14.18;70.53
75961;SHT30;64644;48.914;2.254;2023-05-14T07:36:05;14.20;70.52
75961;SHT30;64644;48.914;2.254;2023-05-14T07:38:30;14.16;70.48
75961;SHT30;64644;48.914;2.254;2023-05-14T07:40:56;14.16;70.52
75961;SHT30;64644;48.914;2.254;2023-05-14T07:43:21;14.17;70.26
75961;SHT30;64644;48.914;2.254;2023-05-14T07:45:46;14.20;70.55
75961;SHT30;64644;48.914;2.254;2023-05-14T07:48:12;14.21;70.56
75961;SHT30;64644;48.914;2.254;2023-05-14T07:50:37;14.20;70.59
75961;SHT30;64644;48.914;2.254;2023-05-14T07:53:02;14.18;70.32
75961;SHT30;64644;48.914;2.254;2023-05-14T07:55:28;14.20;70.43
75961;SHT30;64644;48.914;2.254;2023-05-14T07:57:53;14.21;70.32
75961;SHT30;64644;48.914;2.254;2023-05-14T08:00:18;14.23;70.32
75961;SHT30;64644;48.914;2.254;2023-05-14T08:02:44;14.24;70.27
75961;SHT30;64644;48.914;2.254;2023-05-14T08:05:09;14.24;70.17
75961;SHT30;64644;48.914;2.254;2023-05-14T08:07:34;14.27;70.33
75961;SHT30;64644;48.914;2.254;2023-05-14T08:10:00;14.31;70.18
75961;SHT30;64644;48.914;2.254;2023-05-14T08:12:26;14.34;70.24
75961;SHT30;64644;48.914;2.254;2023-05-14T08:14:51;14.33;70.35
75961;SHT30;64644;48.914;2.254;2023-05-14T08:17:17;14.37;70.22
75961;SHT30;64644;48.914;2.254;2023-05-14T08:19:42;14.40;69.89
75961;SHT30;64644;48.914;2.254;2023-05-14T08:22:07;14.41;69.99
75961;SHT30;64644;48.914;2.254;2023-05-14T08:24:33;14.42;70.01
75961;SHT30;64644;48.914;2.254;2023-05-14T08:26:58;14.45;69.89
75961;SHT30;64644;48.914;2.254;2023-05-14T08:29:24;14.44;69.93
75961;SHT30;64644;48.914;2.254;2023-05-14T08:31:50;14.49;69.85
75961;SHT30;64644;48.914;2.254;2023-05-14T08:34:15;14.45;70.03
75961;SHT30;64644;48.914;2.254;2023-05-14T08:36:40;14.48;69.79
75961;SHT30;64644;48.914;2.254;2023-05-14T08:39:06;14.52;69.80
75961;SHT30;64644;48.914;2.254;2023-05-14T08:41:34;14.52;69.67
75961;SHT30;64644;48.914;2.254;2023-05-14T08:44:11;14.51;69.97
75961;SHT30;64644;48.914;2.254;2023-05-14T08:46:38;14.57;70.01
75961;SHT30;64644;48.914;2.254;2023-05-14T08:51:54;14.58;70.02
75961;SHT30;64644;48.914;2.254;2023-05-14T08:54:20;14.60;69.84
75961;SHT30;64644;48.914;2.254;2023-05-14T08:56:48;14.61;69.75
75961;SHT30;64644;48.914;2.254;2023-05-14T08:59:15;14.61;69.70
75961;SHT30;64644;48.914;2.254;2023-05-14T09:01:45;14.61;69.76
75961;SHT30;64644;48.914;2.254;2023-05-14T09:04:12;14.61;69.70
75961;SHT30;64644;48.914;2.254;2023-05-14T09:06:41;14.62;69.67
75961;SHT30;64644;48.914;2.254;2023-05-14T09:09:08;14.61;69.55
75961;SHT30;64644;48.914;2.254;2023-05-14T09:11:39;14.65;69.55
75961;SHT30;64644;48.914;2.254;2023-05-14T09:14:05;14.64;69.77
75961;SHT30;64644;48.914;2.254;2023-05-14T09:16:30;14.68;69.78
75961;SHT30;64644;48.914;2.254;2023-05-14T09:18:56;14.72;69.80
75961;SHT30;64644;48.914;2.254;2023-05-14T09:21:22;14.72;69.50
75961;SHT30;64644;48.914;2.254;2023-05-14T09:23:52;14.72;69.64
75961;SHT30;64644;48.914;2.254;2023-05-14T09:26:22;14.78;69.59
75961;SHT30;64644;48.914;2.254;2023-05-14T09:28:52;14.79;69.67
75961;SHT30;64644;48.914;2.254;2023-05-14T09:31:17;14.79;69.48
75961;SHT30;64644;48.914;2.254;2023-05-14T09:33:49;14.79;69.54
75961;SHT30;64644;48.914;2.254;2023-05-14T09:36:16;14.79;69.66
75961;SHT30;64644;48.914;2.254;2023-05-14T09:38:41;14.82;69.72
75961;SHT30;64644;48.914;2.254;2023-05-14T09:41:06;14.82;69.87
75961;SHT30;64644;48.914;2.254;2023-05-14T09:43:32;14.86;69.73
75961;SHT30;64644;48.914;2.254;2023-05-14T09:45:57;14.86;69.78
75961;SHT30;64644;48.914;2.254;2023-05-14T09:48:24;14.90;69.61
75961;SHT30;64644;48.914;2.254;2023-05-14T09:50:49;14.90;69.65
75961;SHT30;64644;48.914;2.254;2023-05-14T09:53:16;14.92;69.61
75961;SHT30;64644;48.914;2.254;2023-05-14T09:55:42;14.95;69.53
75961;SHT30;64644;48.914;2.254;2023-05-14T09:58:08;14.95;69.49
75961;SHT30;64644;48.914;2.254;2023-05-14T10:00:34;14.90;69.27
75961;SHT30;64644;48.914;2.254;2023-05-14T10:03:05;14.90;69.47
75961;SHT30;64644;48.914;2.254;2023-05-14T10:05:35;14.89;69.33
75961;SHT30;64644;48.914;2.254;2023-05-14T10:11:02;14.90;69.41
75961;SHT30;64644;48.914;2.254;2023-05-14T10:13:36;14.93;69.66
75961;SHT30;64644;48.914;2.254;2023-05-14T10:16:27;14.96;69.55
75961;SHT30;64644;48.914;2.254;2023-05-14T10:19:20;15.03;69.18
75961;SHT30;64644;48.914;2.254;2023-05-14T10:21:47;15.06;69.36
75961;SHT30;64644;48.914;2.254;2023-05-14T10:24:17;15.11;69.19
75961;SHT30;64644;48.914;2.254;2023-05-14T10:26:43;15.17;69.08
75961;SHT30;64644;48.914;2.254;2023-05-14T10:29:09;15.26;69.23
75961;SHT30;64644;48.914;2.254;2023-05-14T10:31:52;15.28;69.38
75961;SHT30;64644;48.914;2.254;2023-05-14T10:34:38;15.34;68.70
75961;SHT30;64644;48.914;2.254;2023-05-14T10:37:12;15.37;68.85
75961;SHT30;64644;48.914;2.254;2023-05-14T10:40:05;15.40;68.17
75961;SHT30;64644;48.914;2.254;2023-05-14T10:42:35;15.41;68.61
75961;SHT30;64644;48.914;2.254;2023-05-14T10:45:06;15.49;68.75
75961;SHT30;64644;48.914;2.254;2023-05-14T10:47:34;15.55;68.51
75961;SHT30;64644;48.914;2.254;2023-05-14T10:50:05;15.61;68.56
75961;SHT30;64644;48.914;2.254;2023-05-14T10:52:31;15.65;68.48
75961;SHT30;64644;48.914;2.254;2023-05-14T10:54:59;15.73;68.45
75961;SHT30;64644;48.914;2.254;2023-05-14T10:57:28;15.79;68.48
75961;SHT30;64644;48.914;2.254;2023-05-14T10:59:56;15.89;68.26
75961;SHT30;64644;48.914;2.254;2023-05-14T11:02:24;15.90;68.01
75961;SHT30;64644;48.914;2.254;2023-05-14T11:05:10;16.00;68.20
75961;SHT30;64644;48.914;2.254;2023-05-14T11:07:39;16.06;67.78
75961;SHT30;64644;48.914;2.254;2023-05-14T11:10:10;16.10;67.63
75961;SHT30;64644;48.914;2.254;2023-05-14T11:12:39;16.18;67.89
75961;SHT30;64644;48.914;2.254;2023-05-14T11:15:10;16.24;67.58
75961;SHT30;64644;48.914;2.254;2023-05-14T11:17:37;16.34;67.47
75961;SHT30;64644;48.914;2.254;2023-05-14T11:20:04;16.35;66.78
75961;SHT30;64644;48.914;2.254;2023-05-14T11:22:30;16.34;66.44
75961;SHT30;64644;48.914;2.254;2023-05-14T11:24:56;16.37;67.28
75961;SHT30;64644;48.914;2.254;2023-05-14T11:27:22;16.45;67.45
75961;SHT30;64644;48.914;2.254;2023-05-14T11:29:51;16.54;67.41
75961;SHT30;64644;48.914;2.254;2023-05-14T11:32:18;16.64;67.32
75961;SHT30;64644;48.914;2.254;2023-05-14T11:34:45;16.72;66.90
75961;SHT30;64644;48.914;2.254;2023-05-14T11:37:12;16.80;66.77
75961;SHT30;64644;48.914;2.254;2023-05-14T11:39:38;16.90;67.21
75961;SHT30;64644;48.914;2.254;2023-05-14T11:42:10;16.99;67.39
75961;SHT30;64644;48.914;2.254;2023-05-14T11:44:40;17.11;66.53
75961;SHT30;64644;48.914;2.254;2023-05-14T11:47:06;17.18;66.90
75961;SHT30;64644;48.914;2.254;2023-05-14T11:49:32;17.26;66.32
75961;SHT30;64644;48.914;2.254;2023-05-14T11:52:01;17.32;65.87
75961;SHT30;64644;48.914;2.254;2023-05-14T11:54:27;17.41;66.20
75961;SHT30;64644;48.914;2.254;2023-05-14T11:56:54;17.44;66.00
75961;SHT30;64644;48.914;2.254;2023-05-14T11:59:23;17.55;66.11
75961;SHT30;64644;48.914;2.254;2023-05-14T12:01:48;17.66;66.13
75961;SHT30;64644;48.914;2.254;2023-05-14T12:04:14;17.80;66.40
75961;SHT30;64644;48.914;2.254;2023-05-14T12:06:39;17.94;66.16
75961;SHT30;64644;48.914;2.254;2023-05-14T12:09:05;18.06;65.97
75961;SHT30;64644;48.914;2.254;2023-05-14T12:11:31;18.20;66.06
75961;SHT30;64644;48.914;2.254;2023-05-14T12:13:59;18.37;65.70
75961;SHT30;64644;48.914;2.254;2023-05-14T12:16:31;18.52;65.69
75961;SHT30;64644;48.914;2.254;2023-05-14T12:19:00;18.70;65.40
75961;SHT30;64644;48.914;2.254;2023-05-14T12:21:28;18.90;64.81
75961;SHT30;64644;48.914;2.254;2023-05-14T12:23:59;19.02;64.31
75961;SHT30;64644;48.914;2.254;2023-05-14T12:26:25;19.14;64.47
75961;SHT30;64644;48.914;2.254;2023-05-14T12:28:59;19.30;64.21
75961;SHT30;64644;48.914;2.254;2023-05-14T12:31:29;19.45;63.44
75961;SHT30;64644;48.914;2.254;2023-05-14T12:33:55;19.57;63.22
75961;SHT30;64644;48.914;2.254;2023-05-14T12:36:20;19.69;63.17
75961;SHT30;64644;48.914;2.254;2023-05-14T12:38:46;19.79;62.62
75961;SHT30;64644;48.914;2.254;2023-05-14T12:41:11;19.94;63.63
75961;SHT30;64644;48.914;2.254;2023-05-14T12:43:37;20.01;62.62
75961;SHT30;64644;48.914;2.254;2023-05-14T12:46:02;20.11;62.74
75961;SHT30;64644;48.914;2.254;2023-05-14T12:48:27;20.22;62.17
75961;SHT30;64644;48.914;2.254;2023-05-14T12:50:53;20.32;60.96
75961;SHT30;64644;48.914;2.254;2023-05-14T12:53:18;20.39;61.09
75961;SHT30;64644;48.914;2.254;2023-05-14T12:55:43;20.51;61.42
75961;SHT30;64644;48.914;2.254;2023-05-14T12:58:08;20.65;62.26
75961;SHT30;64644;48.914;2.254;2023-05-14T13:00:34;20.77;61.64
75961;SHT30;64644;48.914;2.254;2023-05-14T13:02:59;20.94;61.11
75961;SHT30;64644;48.914;2.254;2023-05-14T13:05:25;21.01;60.64
75961;SHT30;64644;48.914;2.254;2023-05-14T13:07:51;21.15;61.11
75961;SHT30;64644;48.914;2.254;2023-05-14T13:10:17;21.28;61.10
75961;SHT30;64644;48.914;2.254;2023-05-14T13:12:42;21.45;60.31
75961;SHT30;64644;48.914;2.254;2023-05-14T13:15:08;21.55;60.92
75961;SHT30;64644;48.914;2.254;2023-05-14T13:17:35;21.66;59.02
75961;SHT30;64644;48.914;2.254;2023-05-14T13:20:00;21.72;60.24
75961;SHT30;64644;48.914;2.254;2023-05-14T13:22:25;21.80;59.84
75961;SHT30;64644;48.914;2.254;2023-05-14T13:24:51;21.96;59.99
75961;SHT30;64644;48.914;2.254;2023-05-14T13:27:16;22.08;59.94
75961;SHT30;64644;48.914;2.254;2023-05-14T13:29:41;22.18;59.89
75961;SHT30;64644;48.914;2.254;2023-05-14T13:32:08;22.30;58.76
75961;SHT30;64644;48.914;2.254;2023-05-14T13:34:34;22.41;58.12
75961;SHT30;64644;48.914;2.254;2023-05-14T13:36:59;22.52;58.83
75961;SHT30;64644;48.914;2.254;2023-05-14T13:39:25;22.60;58.81
75961;SHT30;64644;48.914;2.254;2023-05-14T13:41:53;22.73;58.20
75961;SHT30;64644;48.914;2.254;2023-05-14T13:44:20;22.86;58.21
75961;SHT30;64644;48.914;2.254;2023-05-14T13:46:46;22.90;57.18
75961;SHT30;64644;48.914;2.254;2023-05-14T13:49:11;22.96;57.78
75961;SHT30;64644;48.914;2.254;2023-05-14T13:51:37;23.07;56.82
75961;SHT30;64644;48.914;2.254;2023-05-14T13:54:02;23.17;57.52
75961;SHT30;64644;48.914;2.254;2023-05-14T13:56:27;23.27;57.88
75961;SHT30;64644;48.914;2.254;2023-05-14T13:58:53;23.38;56.90
75961;SHT30;64644;48.914;2.254;2023-05-14T14:01:18;23.52;56.54
75961;SHT30;64644;48.914;2.254;2023-05-14T14:03:44;23.61;57.08
75961;SHT30;64644;48.914;2.254;2023-05-14T14:06:09;23.76;57.25
75961;SHT30;64644;48.914;2.254;2023-05-14T14:08:35;23.90;55.98
75961;SHT30;64644;48.914;2.254;2023-05-14T14:11:00;24.03;55.84
75961;SHT30;64644;48.914;2.254;2023-05-14T14:13:25;24.17;56.22
75961;SHT30;64644;48.914;2.254;2023-05-14T14:15:51;24.39;55.85
75961;SHT30;64644;48.914;2.254;2023-05-14T14:18:17;24.61;55.40
75961;SHT30;64644;48.914;2.254;2023-05-14T14:20:42;24.86;55.27
75961;SHT30;64644;48.914;2.254;2023-05-14T14:23:08;25.08;54.85
75961;SHT30;64644;48.914;2.254;2023-05-14T14:25:33;25.23;53.98
75961;SHT30;64644;48.914;2.254;2023-05-14T14:27:58;25.31;53.41
75961;SHT30;64644;48.914;2.254;2023-05-14T14:30:24;25.38;52.30
75961;SHT30;64644;48.914;2.254;2023-05-14T14:32:49;25.45;52.97
75961;SHT30;64644;48.914;2.254;2023-05-14T14:35:16;25.58;53.42
75961;SHT30;64644;48.914;2.254;2023-05-14T14:37:43;25.75;53.23
75961;SHT30;64644;48.914;2.254;2023-05-14T14:40:13;25.92;53.22
75961;SHT30;64644;48.914;2.254;2023-05-14T14:42:38;26.04;53.93
75961;SHT30;64644;48.914;2.254;2023-05-14T14:45:04;26.13;52.49
75961;SHT30;64644;48.914;2.254;2023-05-14T14:47:30;26.20;53.01
75961;SHT30;64644;48.914;2.254;2023-05-14T14:49:56;26.16;52.14
75961;SHT30;64644;48.914;2.254;2023-05-14T14:52:22;26.07;51.90
75961;SHT30;64644;48.914;2.254;2023-05-14T14:54:48;25.92;52.16
75961;SHT30;64644;48.914;2.254;2023-05-14T14:57:14;25.76;51.65
75961;SHT30;64644;48.914;2.254;2023-05-14T14:59:39;25.61;51.95
75961;SHT30;64644;48.914;2.254;2023-05-14T15:02:06;25.46;52.18
75961;SHT30;64644;48.914;2.254;2023-05-14T15:04:33;25.31;51.99
75961;SHT30;64644;48.914;2.254;2023-05-14T15:06:59;25.14;52.11
75961;SHT30;64644;48.914;2.254;2023-05-14T15:09:24;24.99;52.03
75961;SHT30;64644;48.914;2.254;2023-05-14T15:11:50;24.79;51.30
75961;SHT30;64644;48.914;2.254;2023-05-14T15:14:15;24.68;51.53
75961;SHT30;64644;48.914;2.254;2023-05-14T15:16:41;24.49;52.46
75961;SHT30;64644;48.914;2.254;2023-05-14T15:19:06;24.32;52.60
75961;SHT30;64644;48.914;2.254;2023-05-14T15:21:32;24.16;52.43
75961;SHT30;64644;48.914;2.254;2023-05-14T15:23:57;23.97;52.81
75961;SHT30;64644;48.914;2.254;2023-05-14T15:26:22;23.80;51.89
75961;SHT30;64644;48.914;2.254;2023-05-14T15:28:47;23.72;52.23
75961;SHT30;64644;48.914;2.254;2023-05-14T15:31:13;23.56;53.03
75961;SHT30;64644;48.914;2.254;2023-05-14T15:33:38;23.45;53.19
75961;SHT30;64644;48.914;2.254;2023-05-14T15:36:06;23.34;52.14